createdAt,value
2023-04-11T00:00:30.987Z,1.23
2023-04-11T00:03:03.200Z,1.03
2023-04-11T00:05:33.013Z,1.10
2023-04-11T00:07:59.103Z,1.30
2023-04-11T00:10:25.305Z,1.20
2023-04-11T00:12:55.845Z,1.20
2023-04-11T00:15:23.837Z,1.10
2023-04-11T00:17:50.257Z,1.10
2023-04-11T00:20:16.442Z,1.00
2023-04-11T00:22:43.099Z,1.20
2023-04-11T00:25:09.343Z,1.43
2023-04-11T00:27:35.443Z,1.10
2023-04-11T00:30:01.600Z,1.10
2023-04-11T00:32:27.710Z,1.33
2023-04-11T00:34:54.581Z,1.20
2023-04-11T00:37:23.242Z,0.90
2023-04-11T00:39:49.915Z,1.00
2023-04-11T00:42:16.436Z,0.70
2023-04-11T00:44:42.524Z,0.60
2023-04-11T00:47:08.957Z,0.90
2023-04-11T00:49:35.548Z,0.70
2023-04-11T00:52:02.522Z,0.70
2023-04-11T00:54:30.310Z,0.83
2023-04-11T00:57:01.132Z,0.90
2023-04-11T00:59:27.992Z,1.03
2023-04-11T01:01:54.546Z,0.87
2023-04-11T01:04:21.120Z,1.20
2023-04-11T01:06:50.646Z,1.43
2023-04-11T01:09:18.115Z,1.13
2023-04-11T01:11:44.205Z,1.30
2023-04-11T01:14:11.485Z,0.80
2023-04-11T01:16:37.644Z,1.40
2023-04-11T01:19:03.885Z,1.10
2023-04-11T01:21:31.188Z,0.70
2023-04-11T01:23:57.774Z,0.83
2023-04-11T01:26:23.847Z,0.83
2023-04-11T01:28:50.675Z,0.70
2023-04-11T01:31:16.796Z,0.60
2023-04-11T01:33:42.955Z,1.00
2023-04-11T01:36:09.343Z,0.80
2023-04-11T01:38:35.660Z,0.90
2023-04-11T01:41:02.100Z,0.90
2023-04-11T01:43:28.254Z,1.00
2023-04-11T01:45:54.347Z,0.87
2023-04-11T01:48:20.588Z,0.73
2023-04-11T01:50:46.700Z,1.00
2023-04-11T01:53:12.862Z,1.00
2023-04-11T01:55:38.926Z,0.80
2023-04-11T01:58:05.151Z,1.00
2023-04-11T02:00:31.848Z,1.10
2023-04-11T02:02:58.024Z,1.10
2023-04-11T02:05:24.304Z,0.70
2023-04-11T02:07:50.393Z,0.80
2023-04-11T02:10:16.458Z,0.60
2023-04-11T02:12:42.528Z,0.60
2023-04-11T02:15:08.956Z,0.70
2023-04-11T02:17:36.153Z,0.60
2023-04-11T02:20:06.245Z,0.70
2023-04-11T02:22:32.294Z,0.50
2023-04-11T02:24:58.375Z,0.60
2023-04-11T02:27:24.553Z,0.50
2023-04-11T02:29:50.675Z,0.50
2023-04-11T02:32:16.802Z,1.00
2023-04-11T02:34:42.911Z,0.80
2023-04-11T02:37:09.488Z,0.50
2023-04-11T02:39:35.544Z,0.40
2023-04-11T02:42:01.655Z,0.43
2023-04-11T02:44:28.780Z,0.50
2023-04-11T02:46:55.345Z,0.47
2023-04-11T02:49:21.431Z,0.50
2023-04-11T02:51:47.497Z,0.50
2023-04-11T02:54:13.639Z,0.53
2023-04-11T02:56:39.798Z,0.50
2023-04-11T02:59:06.375Z,0.50
2023-04-11T03:01:32.701Z,0.50
2023-04-11T03:03:59.173Z,0.83
2023-04-11T03:06:26.334Z,0.60
2023-04-11T03:08:52.407Z,0.67
2023-04-11T03:11:18.512Z,0.93
2023-04-11T03:13:44.565Z,0.47
2023-04-11T03:16:13.000Z,0.60
2023-04-11T03:18:39.189Z,0.57
2023-04-11T03:21:07.379Z,0.70
2023-04-11T03:23:33.465Z,0.50
2023-04-11T03:25:59.977Z,0.50
2023-04-11T03:28:26.053Z,0.80
2023-04-11T03:30:53.823Z,0.73
2023-04-11T03:33:19.935Z,0.93
2023-04-11T03:35:46.119Z,0.70
2023-04-11T03:38:12.294Z,0.50
2023-04-11T03:40:38.421Z,0.70
2023-04-11T03:43:04.978Z,0.70
2023-04-11T03:45:31.169Z,0.70
2023-04-11T03:47:57.274Z,0.60
2023-04-11T03:50:23.362Z,0.60
2023-04-11T03:52:49.549Z,0.70
2023-04-11T03:55:15.794Z,0.90
2023-04-11T03:57:42.088Z,0.60
2023-04-11T04:00:09.435Z,0.70
2023-04-11T04:02:35.654Z,0.60
2023-04-11T04:05:01.860Z,0.70
2023-04-11T04:07:28.170Z,0.60
2023-04-11T04:09:54.607Z,0.67
2023-04-11T04:12:21.086Z,0.70
2023-04-11T04:14:47.356Z,0.70
2023-04-11T04:17:14.859Z,0.60
2023-04-11T04:19:41.817Z,0.93
2023-04-11T04:22:11.554Z,0.80
2023-04-11T04:24:38.841Z,0.80
2023-04-11T04:27:13.044Z,0.80
2023-04-11T04:29:45.684Z,0.70
2023-04-11T04:32:13.987Z,0.70
2023-04-11T04:34:54.272Z,1.60
2023-04-11T04:37:22.526Z,0.97
2023-04-11T04:39:50.217Z,1.07
2023-04-11T04:42:17.062Z,0.97
2023-04-11T04:44:43.386Z,1.30
2023-04-11T04:47:09.572Z,1.20
2023-04-11T04:49:35.638Z,1.30
2023-04-11T04:52:01.706Z,1.03
2023-04-11T04:54:28.040Z,1.50
2023-04-11T04:56:54.830Z,1.30
2023-04-11T04:59:20.980Z,1.10
2023-04-11T05:01:50.753Z,1.33
2023-04-11T05:04:17.029Z,1.00
2023-04-11T05:06:43.441Z,1.10
2023-04-11T05:09:09.626Z,1.00
2023-04-11T05:11:35.673Z,1.20
2023-04-11T05:14:01.745Z,1.00
2023-04-11T05:16:27.870Z,1.30
2023-04-11T05:18:53.997Z,1.30
2023-04-11T05:21:20.223Z,1.23
2023-04-11T05:23:46.405Z,1.30
2023-04-11T05:26:12.730Z,1.43
2023-04-11T05:28:38.915Z,1.43
2023-04-11T05:31:05.952Z,1.43
2023-04-11T05:33:32.304Z,1.30
2023-04-11T05:35:58.412Z,1.43
2023-04-11T05:38:24.828Z,1.40
2023-04-11T05:40:51.179Z,1.33
2023-04-11T05:43:17.315Z,1.87
2023-04-11T05:45:47.121Z,1.30
2023-04-11T05:48:16.028Z,1.60
2023-04-11T05:50:42.404Z,1.70
2023-04-11T05:53:08.530Z,2.07
2023-04-11T05:55:36.380Z,2.27
2023-04-11T05:58:02.755Z,1.77
2023-04-11T06:00:30.302Z,1.80
2023-04-11T06:02:56.927Z,1.70
2023-04-11T06:05:23.935Z,2.00
2023-04-11T06:07:50.481Z,1.30
2023-04-11T06:10:16.554Z,1.17
2023-04-11T06:12:42.700Z,1.40
2023-04-11T06:15:11.112Z,1.43
2023-04-11T06:17:37.731Z,1.33
2023-04-11T06:20:06.230Z,1.20
2023-04-11T06:22:32.437Z,1.50
2023-04-11T06:24:58.510Z,1.80
2023-04-11T06:27:25.750Z,1.57
2023-04-11T06:29:51.838Z,1.37
2023-04-11T06:32:17.987Z,1.57
2023-04-11T06:34:44.096Z,1.47
2023-04-11T06:37:10.330Z,1.30
2023-04-11T06:39:36.475Z,1.50
2023-04-11T06:42:03.046Z,1.20
2023-04-11T06:44:30.376Z,2.23
2023-04-11T06:46:58.347Z,1.90
2023-04-11T06:49:24.426Z,2.60
2023-04-11T06:51:50.980Z,1.83
2023-04-11T06:54:17.787Z,2.37
2023-04-11T06:56:43.921Z,2.17
2023-04-11T06:59:10.226Z,2.10
2023-04-11T07:01:38.613Z,1.57
2023-04-11T07:04:05.885Z,2.73
2023-04-11T07:06:34.998Z,2.20
2023-04-11T07:09:02.265Z,2.50
2023-04-11T07:11:28.464Z,2.37
2023-04-11T07:13:55.655Z,3.00
2023-04-11T07:16:22.570Z,2.63
2023-04-11T07:18:48.909Z,2.73
2023-04-11T07:21:15.039Z,2.00
2023-04-11T07:23:41.986Z,2.03
2023-04-11T07:26:10.496Z,2.17
2023-04-11T07:28:37.849Z,1.87
2023-04-11T07:31:04.420Z,1.93
2023-04-11T07:33:30.607Z,1.53
2023-04-11T07:35:56.729Z,1.43
2023-04-11T07:38:28.911Z,1.53
2023-04-11T07:40:55.985Z,1.60
2023-04-11T07:43:23.192Z,1.63
2023-04-11T07:45:49.427Z,1.77
2023-04-11T07:48:15.498Z,1.23
2023-04-11T07:50:41.582Z,1.70
2023-04-11T07:53:07.652Z,1.60
2023-04-11T07:55:33.753Z,1.70
2023-04-11T07:57:59.897Z,1.93
2023-04-11T08:00:26.438Z,2.13
2023-04-11T08:02:52.648Z,1.90
2023-04-11T08:05:19.270Z,1.70
2023-04-11T08:07:45.461Z,2.10
2023-04-11T08:10:11.902Z,1.60
2023-04-11T08:12:38.082Z,1.70
2023-04-11T08:15:04.553Z,1.93
2023-04-11T08:17:36.942Z,1.73
2023-04-11T08:20:13.200Z,1.87
2023-04-11T08:22:41.020Z,2.47
2023-04-11T08:25:11.661Z,2.70
2023-04-11T08:27:38.432Z,1.50
2023-04-11T08:30:07.631Z,2.40
2023-04-11T08:32:36.954Z,1.60
2023-04-11T08:35:03.996Z,1.97
2023-04-11T08:37:30.583Z,1.77
2023-04-11T08:39:56.916Z,1.80
2023-04-11T08:42:23.566Z,1.80
2023-04-11T08:44:57.454Z,1.60
2023-04-11T08:47:24.144Z,1.93
2023-04-11T08:49:50.806Z,1.70
2023-04-11T08:52:20.870Z,1.67
2023-04-11T08:54:47.885Z,1.60
2023-04-11T08:57:43.311Z,1.57
2023-04-11T09:00:18.076Z,2.37
2023-04-11T09:03:01.056Z,3.40
2023-04-11T09:05:29.852Z,2.30
2023-04-11T09:07:58.204Z,2.27
2023-04-11T09:10:25.263Z,2.70
2023-04-11T09:12:53.361Z,1.90
2023-04-11T09:15:25.000Z,3.03
2023-04-11T09:17:51.669Z,2.07
2023-04-11T09:20:25.383Z,2.90
2023-04-11T09:22:52.862Z,2.90
2023-04-11T09:25:20.426Z,2.83
2023-04-11T09:27:47.413Z,2.80
2023-04-11T09:30:24.652Z,2.20
2023-04-11T09:32:55.383Z,3.60
2023-04-11T09:35:24.260Z,2.20
2023-04-11T09:37:55.879Z,1.63
2023-04-11T09:40:27.200Z,1.90
2023-04-11T09:43:01.092Z,9.30
2023-04-11T09:45:28.441Z,4.00
2023-04-11T09:47:56.348Z,2.00
2023-04-11T09:50:23.492Z,1.37
2023-04-11T09:52:49.805Z,1.40
2023-04-11T09:55:19.041Z,1.63
2023-04-11T09:57:47.260Z,2.10
2023-04-11T10:00:22.164Z,1.80
2023-04-11T10:02:51.971Z,1.80
2023-04-11T10:05:19.781Z,1.97
2023-04-11T10:07:52.258Z,1.80
2023-04-11T10:10:20.522Z,2.10
2023-04-11T10:12:46.972Z,1.13
2023-04-11T10:15:13.288Z,1.60
2023-04-11T10:17:40.368Z,1.83
2023-04-11T10:20:45.522Z,2.03
2023-04-11T10:23:13.247Z,1.70
2023-04-11T10:25:59.529Z,1.63
2023-04-11T10:28:29.396Z,1.70
2023-04-11T10:31:01.128Z,1.43
2023-04-11T10:33:27.428Z,1.30
2023-04-11T10:36:04.694Z,2.97
2023-04-11T10:38:42.974Z,1.70
2023-04-11T10:41:22.262Z,3.50
2023-04-11T10:43:49.079Z,1.93
2023-04-11T10:46:25.330Z,1.70
2023-04-11T10:49:02.463Z,1.40
2023-04-11T10:51:30.768Z,3.40
2023-04-11T10:54:01.043Z,1.30
2023-04-11T10:56:39.533Z,1.10
2023-04-11T10:59:05.636Z,1.50
2023-04-11T11:01:37.617Z,1.20
2023-04-11T11:04:09.532Z,1.23
2023-04-11T11:06:46.218Z,1.30
2023-04-11T11:09:21.248Z,1.20
2023-04-11T11:12:04.621Z,1.13
2023-04-11T11:14:30.744Z,1.00
2023-04-11T11:16:56.960Z,1.20
2023-04-11T11:19:23.160Z,1.07
2023-04-11T11:21:51.239Z,1.53
2023-04-11T11:24:26.867Z,1.10
2023-04-11T11:26:54.281Z,1.30
2023-04-11T11:29:37.048Z,1.57
2023-04-11T11:32:07.759Z,1.00
2023-04-11T11:34:39.695Z,1.90
2023-04-11T11:37:10.506Z,1.60
2023-04-11T11:39:42.996Z,2.30
2023-04-11T11:42:17.458Z,3.17
2023-04-11T11:44:48.177Z,1.47
2023-04-11T11:47:18.270Z,1.83
2023-04-11T11:49:56.051Z,2.93
2023-04-11T11:52:36.765Z,2.20
2023-04-11T11:55:04.991Z,1.30
2023-04-11T11:57:34.080Z,1.70
2023-04-11T12:00:09.349Z,1.60
2023-04-11T12:02:35.798Z,1.30
2023-04-11T12:05:05.247Z,1.90
2023-04-11T12:07:39.878Z,1.10
2023-04-11T12:10:08.281Z,0.90
2023-04-11T12:12:35.940Z,0.93
2023-04-11T12:15:03.171Z,1.10
2023-04-11T12:17:35.328Z,0.93
2023-04-11T12:20:07.586Z,0.80
2023-04-11T12:22:34.671Z,1.07
2023-04-11T12:25:12.352Z,1.30
2023-04-11T12:27:41.627Z,1.07
2023-04-11T12:30:14.464Z,0.93
2023-04-11T12:32:44.003Z,1.10
2023-04-11T12:35:13.565Z,1.07
2023-04-11T12:37:44.164Z,1.10
2023-04-11T12:40:15.199Z,1.17
2023-04-11T12:42:56.986Z,1.10
2023-04-11T12:45:24.347Z,1.00
2023-04-11T12:47:51.617Z,2.03
2023-04-11T12:50:22.710Z,3.33
2023-04-11T12:52:52.753Z,1.17
2023-04-11T12:55:23.894Z,4.20
2023-04-11T12:57:53.871Z,3.63
2023-04-11T13:00:26.202Z,2.07
2023-04-11T13:02:57.856Z,1.10
2023-04-11T13:05:27.172Z,1.67
2023-04-11T13:08:03.107Z,1.00
2023-04-11T13:10:33.696Z,1.00
2023-04-11T13:13:17.018Z,1.17
2023-04-11T13:15:50.300Z,1.17
2023-04-11T13:18:16.483Z,1.10
2023-04-11T13:20:42.744Z,1.00
2023-04-11T13:23:10.438Z,1.20
2023-04-11T13:25:45.706Z,1.10
2023-04-11T13:28:13.544Z,0.70
2023-04-11T13:30:45.645Z,0.43
2023-04-11T13:33:19.741Z,1.00
2023-04-11T13:35:51.165Z,0.67
2023-04-11T13:38:21.745Z,0.70
2023-04-11T13:40:52.593Z,0.97
2023-04-11T13:43:23.162Z,0.90
2023-04-11T13:45:54.065Z,0.93
2023-04-11T13:48:24.360Z,1.50
2023-04-11T13:50:59.140Z,1.20
2023-04-11T13:53:29.216Z,0.90
2023-04-11T13:56:00.488Z,0.70
2023-04-11T13:58:31.363Z,0.80
2023-04-11T14:01:01.874Z,0.90
2023-04-11T14:03:32.912Z,1.47
2023-04-11T14:06:03.049Z,0.97
2023-04-11T14:08:38.788Z,1.57
2023-04-11T14:11:09.338Z,1.10
2023-04-11T14:13:40.062Z,0.90
2023-04-11T14:16:13.465Z,0.70
2023-04-11T14:18:44.132Z,1.00
2023-04-11T14:21:14.984Z,1.20
2023-04-11T14:23:45.196Z,0.73
2023-04-11T14:26:16.560Z,1.10
2023-04-11T14:28:46.439Z,0.63
2023-04-11T14:31:17.187Z,0.77
2023-04-11T14:33:52.859Z,0.90
2023-04-11T14:36:21.578Z,1.10
2023-04-11T14:38:51.704Z,1.40
2023-04-11T14:41:22.701Z,1.23
2023-04-11T14:43:52.859Z,1.20
2023-04-11T14:46:24.088Z,1.13
2023-04-11T14:48:55.333Z,1.37
2023-04-11T14:51:29.062Z,1.00
2023-04-11T14:54:00.040Z,1.10
2023-04-11T14:56:30.952Z,1.13
2023-04-11T14:59:00.927Z,1.17
2023-04-11T15:01:31.587Z,1.20
2023-04-11T15:04:02.267Z,1.27
2023-04-11T15:06:32.631Z,1.10
2023-04-11T15:09:06.419Z,1.50
2023-04-11T15:11:36.611Z,1.00
2023-04-11T15:14:07.045Z,0.93
2023-04-11T15:16:37.612Z,1.23
2023-04-11T15:19:09.226Z,1.00
2023-04-11T15:21:40.456Z,1.03
2023-04-11T15:24:10.936Z,1.00
2023-04-11T15:26:45.889Z,1.30
2023-04-11T15:29:17.017Z,0.67
2023-04-11T15:31:48.465Z,0.80
2023-04-11T15:34:24.417Z,0.90
2023-04-11T15:36:53.044Z,1.00
2023-04-11T15:39:23.381Z,1.07
2023-04-11T15:41:54.241Z,1.60
2023-04-11T15:44:24.897Z,1.70
2023-04-11T15:46:56.017Z,1.23
2023-04-11T15:49:26.326Z,1.40
2023-04-11T15:52:00.697Z,1.20
2023-04-11T15:54:32.059Z,1.27
2023-04-11T15:57:03.416Z,1.30
2023-04-11T15:59:37.135Z,0.87
2023-04-11T16:02:04.973Z,1.27
2023-04-11T16:04:38.707Z,1.20
2023-04-11T16:07:06.390Z,1.30
2023-04-11T16:09:43.396Z,1.23
2023-04-11T16:12:13.255Z,1.10
2023-04-11T16:14:45.163Z,1.70
2023-04-11T16:17:19.938Z,1.17
2023-04-11T16:19:51.327Z,1.60
2023-04-11T16:22:20.508Z,1.43
2023-04-11T16:24:51.427Z,1.73
2023-04-11T16:27:22.393Z,1.10
2023-04-11T16:29:59.025Z,1.17
2023-04-11T16:32:25.127Z,1.07
2023-04-11T16:35:02.901Z,0.80
2023-04-11T16:37:34.498Z,1.33
2023-04-11T16:40:10.309Z,1.03
2023-04-11T16:42:44.356Z,1.33
2023-04-11T16:45:13.801Z,0.87
2023-04-11T16:47:44.269Z,1.10
2023-04-11T16:50:17.313Z,1.53
2023-04-11T16:52:47.899Z,1.00
2023-04-11T16:55:18.555Z,1.07
2023-04-11T16:57:49.023Z,1.50
2023-04-11T17:00:20.061Z,1.10
2023-04-11T17:02:51.051Z,1.43
2023-04-11T17:05:23.273Z,1.20
2023-04-11T17:07:51.621Z,1.20
2023-04-11T17:10:22.187Z,1.90
2023-04-11T17:12:53.858Z,1.40
2023-04-11T17:15:23.851Z,1.47
2023-04-11T17:17:57.655Z,0.90
2023-04-11T17:20:27.433Z,1.50
2023-04-11T17:22:58.961Z,1.20
2023-04-11T17:25:37.609Z,1.43
2023-04-11T17:28:07.896Z,1.63
2023-04-11T17:30:38.255Z,2.67
2023-04-11T17:33:09.371Z,2.80
2023-04-11T17:35:39.955Z,2.20
2023-04-11T17:38:14.838Z,2.00
2023-04-11T17:40:42.264Z,2.30
2023-04-11T17:43:15.832Z,1.57
2023-04-11T17:45:46.916Z,1.80
2023-04-11T17:48:17.692Z,1.60
2023-04-11T17:50:51.089Z,1.80
2023-04-11T17:53:21.907Z,2.20
2023-04-11T17:55:53.751Z,2.33
2023-04-11T17:58:23.357Z,1.77
2023-04-11T18:00:56.937Z,1.60
2023-04-11T18:03:24.876Z,2.30
2023-04-11T18:05:55.627Z,2.17
2023-04-11T18:08:46.862Z,3.17
2023-04-11T18:11:14.723Z,1.90
2023-04-11T18:13:44.148Z,1.73
2023-04-11T18:16:17.734Z,1.30
2023-04-11T18:18:45.270Z,1.33
2023-04-11T18:21:11.557Z,1.87
2023-04-11T18:23:38.180Z,1.40
2023-04-11T18:26:10.826Z,1.90
2023-04-11T18:28:41.065Z,1.97
2023-04-11T18:31:11.955Z,2.00
2023-04-11T18:33:46.705Z,1.57
2023-04-11T18:36:15.832Z,1.40
2023-04-11T18:38:46.593Z,1.20
2023-04-11T18:41:18.479Z,1.63
2023-04-11T18:43:47.888Z,1.67
2023-04-11T18:46:19.000Z,1.70
2023-04-11T18:48:49.337Z,1.60
2023-04-11T18:51:22.468Z,1.53
2023-04-11T18:53:53.876Z,2.17
2023-04-11T18:56:23.629Z,2.50
2023-04-11T18:58:56.452Z,2.33
2023-04-11T19:01:31.171Z,2.80
2023-04-11T19:03:58.461Z,2.50
2023-04-11T19:06:28.828Z,2.47
2023-04-11T19:09:01.539Z,2.47
2023-04-11T19:11:31.825Z,3.30
2023-04-11T19:14:02.709Z,2.70
2023-04-11T19:16:34.001Z,2.37
2023-04-11T19:19:03.905Z,2.00
2023-04-11T19:21:34.490Z,2.30
2023-04-11T19:24:05.129Z,2.00
2023-04-11T19:26:35.251Z,1.63
2023-04-11T19:29:06.411Z,2.10
2023-04-11T19:31:37.205Z,2.07
2023-04-11T19:34:08.115Z,1.47
2023-04-11T19:36:41.881Z,1.83
2023-04-11T19:39:11.911Z,1.90
2023-04-11T19:41:45.720Z,1.70
2023-04-11T19:44:16.632Z,1.70
2023-04-11T19:46:47.334Z,1.80
2023-04-11T19:49:17.511Z,1.70
2023-04-11T19:51:48.153Z,1.70
2023-04-11T19:54:18.625Z,1.70
2023-04-11T19:56:52.978Z,2.03
2023-04-11T19:59:21.038Z,2.20
2023-04-11T20:01:54.063Z,1.80
2023-04-11T20:04:24.667Z,2.20
2023-04-11T20:06:57.740Z,2.07
2023-04-11T20:09:29.031Z,1.23
2023-04-11T20:11:59.387Z,1.70
2023-04-11T20:14:28.824Z,1.87
2023-04-11T20:17:00.051Z,1.80
2023-04-11T20:19:36.869Z,1.77
2023-04-11T20:22:04.921Z,2.07
2023-04-11T20:24:34.896Z,1.97
2023-04-11T20:27:05.583Z,2.03
2023-04-11T20:29:37.621Z,2.10
2023-04-11T20:32:07.721Z,2.70
2023-04-11T20:34:37.207Z,3.13
2023-04-11T20:37:12.369Z,3.07
2023-04-11T20:39:43.508Z,2.50
2023-04-11T20:42:14.672Z,2.70
2023-04-11T20:44:44.435Z,3.57
2023-04-11T20:47:15.353Z,3.40
2023-04-11T20:49:48.945Z,3.97
2023-04-11T20:52:18.175Z,4.10
2023-04-11T20:54:53.897Z,4.70
2023-04-11T20:57:25.976Z,4.10
2023-04-11T20:59:59.662Z,4.77
2023-04-11T21:02:36.415Z,5.10
2023-04-11T21:05:07.806Z,5.40
2023-04-11T21:07:38.969Z,5.23
2023-04-11T21:10:12.658Z,5.60
2023-04-11T21:12:50.287Z,5.17
2023-04-11T21:15:17.711Z,5.10
2023-04-11T21:17:45.159Z,4.53
2023-04-11T21:20:19.386Z,4.43
2023-04-11T21:22:48.438Z,3.70
2023-04-11T21:25:27.284Z,3.70
2023-04-11T21:27:57.933Z,3.87
2023-04-11T21:30:29.838Z,3.80
2023-04-11T21:32:59.259Z,2.37
2023-04-11T21:35:34.302Z,2.40
2023-04-11T21:38:04.997Z,2.70
2023-04-11T21:40:35.719Z,2.40
2023-04-11T21:43:05.791Z,4.20
2023-04-11T21:45:35.689Z,2.63
2023-04-11T21:48:06.224Z,3.20
2023-04-11T21:50:36.603Z,2.87
2023-04-11T21:53:10.330Z,3.07
2023-04-11T21:55:47.263Z,2.63
2023-04-11T21:58:27.973Z,2.87
2023-04-11T22:01:02.056Z,2.77
2023-04-11T22:03:28.571Z,2.97
2023-04-11T22:05:57.490Z,3.70
2023-04-11T22:08:28.505Z,3.50
2023-04-11T22:10:56.136Z,4.30
2023-04-11T22:13:22.395Z,3.07
2023-04-11T22:15:57.882Z,3.13
2023-04-11T22:18:31.214Z,4.13
2023-04-11T22:20:57.270Z,4.83
2023-04-11T22:23:24.486Z,3.63
2023-04-11T22:25:58.736Z,3.77
2023-04-11T22:28:26.933Z,3.23
2023-04-11T22:30:57.880Z,3.10
2023-04-11T22:33:29.119Z,2.73
2023-04-11T22:36:08.898Z,3.20
2023-04-11T22:38:36.281Z,3.30
2023-04-11T22:41:13.796Z,3.93
2023-04-11T22:43:47.316Z,3.60
2023-04-11T22:46:13.496Z,3.57
2023-04-11T22:48:45.900Z,4.20
2023-04-11T22:51:15.783Z,3.10
2023-04-11T22:53:47.612Z,3.67
2023-04-11T22:56:17.504Z,3.27
2023-04-11T22:58:48.694Z,3.70
2023-04-11T23:01:21.530Z,3.60
2023-04-11T23:03:51.115Z,3.70
2023-04-11T23:06:22.010Z,4.30
2023-04-11T23:08:56.348Z,3.70
2023-04-11T23:11:26.511Z,4.00
2023-04-11T23:13:57.191Z,4.30
2023-04-11T23:16:27.500Z,4.53
2023-04-11T23:18:58.540Z,5.70
2023-04-11T23:21:29.549Z,5.07
2023-04-11T23:23:59.065Z,5.77
2023-04-11T23:26:32.793Z,5.50
2023-04-11T23:29:02.898Z,5.80
2023-04-11T23:31:33.605Z,6.00
2023-04-11T23:34:04.402Z,6.10
2023-04-11T23:36:34.460Z,5.53
2023-04-11T23:39:05.980Z,5.83
2023-04-11T23:41:36.667Z,5.80
2023-04-11T23:44:11.223Z,5.30
2023-04-11T23:46:42.144Z,4.70
2023-04-11T23:49:12.053Z,5.63
2023-04-11T23:51:45.345Z,5.20
2023-04-11T23:54:16.557Z,5.63
2023-04-11T23:56:46.679Z,6.27
2023-04-11T23:59:17.264Z,5.43
